Time;durP1;ratioP1;P1;durP2;ratioP2;P2;SDS_P1;SDS_P2;PMS_P1;PMS_P2;Temp;Humidity;BMP_temperature;BMP_pressure;BME280_temperature;BME280_humidity;BME280_pressure;Samples;Min_cycle;Max_cycle;Signal;HPM_P1;HPM_P2
2023/01/30 00:00:35;;;;;;;;;;;;;;;;;;5050944;28;1405;-46
2023/01/30 00:03:02;;;;;;;;;;;;;;;;;;5039677;28;2349;-43
2023/01/30 00:05:29;;;;;;;;;;;;;;;;;;5050888;28;1683;-45
2023/01/30 00:07:57;;;;;;;;;;;;;;;;;;5047627;28;2120;-47
2023/01/30 00:10:24;;;;;;;;;;;;;;;;;;5038429;28;1869;-51
2023/01/30 00:12:51;;;;;;;;;;;;;;;;;;5041852;28;1893;-46
2023/01/30 00:15:19;;;;;;;;;;;;;;;;;;5045659;28;1849;-50
2023/01/30 00:17:46;;;;;;;;;;;;;;;;;;5050856;28;2201;-52
2023/01/30 00:20:13;;;;;;;;;;;;;;;;;;5045692;28;1861;-47
2023/01/30 00:22:41;;;;;;;;;;;;;;;;;;5050715;28;1939;-53
2023/01/30 00:25:21;;;;;;;;;;;;;;;;;;5043276;28;2041;-53
2023/01/30 00:27:51;;;;;;;;;;;;;;;;;;5050874;28;1733;-53
2023/01/30 00:30:18;;;;;;;;;;;;;;;;;;5029304;28;2161;-49
2023/01/30 00:32:46;;;;;;;;;;;;;;;;;;5042989;28;1966;-53
2023/01/30 00:35:13;;;;;;;;;;;;;;;;;;5037160;28;1508;-47
2023/01/30 00:37:41;;;;;;;;;;;;;;;;;;5039907;28;2176;-51
2023/01/30 00:40:08;;;;;;;;;;;;;;;;;;5065455;28;2532;-52
2023/01/30 00:48:08;;;;;;;;;;;;;;;;;;5063740;28;1895;-44
2023/01/30 00:50:43;;;;;;;;;;;;;;;;;;5054654;28;2304;-54
2023/01/30 00:53:12;;;;;;;;;;;;;;;;;;5054229;28;1988;-53
2023/01/30 00:55:39;;;;;;;;;;;;;;;;;;5054275;28;1951;-47
2023/01/30 00:58:06;;;;;;;;;;;;;;;;;;5049173;28;1766;-48
2023/01/30 01:00:34;;;;;;;;;;;;;;;;;;5053322;28;1987;-47
2023/01/30 01:03:01;;;;;;;;;;;;;;;;;;5036037;28;2237;-47
2023/01/30 01:05:29;;;;;;;;;;;;;;;;;;5053868;28;2256;-56
2023/01/30 01:07:57;;;;;;;;;;;;;;;;;;5054027;28;1300;-52
2023/01/30 01:10:24;;;;;;;;;;;;;;;;;;5054003;28;1798;-50
2023/01/30 01:12:51;;;;;;;;;;;;;;;;;;5052409;28;1734;-49
2023/01/30 01:15:20;;;;;;;;;;;;;;;;;;5052557;28;1801;-44
2023/01/30 01:17:48;;;;;;;;;;;;;;;;;;5032862;28;2112;-48
2023/01/30 01:20:15;;;;;;;;;;;;;;;;;;5029134;28;1680;-50
2023/01/30 01:22:43;;;;;;;;;;;;;;;;;;5053756;28;2256;-47
2023/01/30 01:25:10;;;;;;;;;;;;;;;;;;5049085;28;1966;-52
2023/01/30 01:27:41;;;;;;;;;;;;;;;;;;5017281;28;1637;-50
2023/01/30 01:30:08;;;;;;;;;;;;;;;;;;5049362;28;1732;-52
2023/01/30 01:32:36;;;;;;;;;;;;;;;;;;5042211;28;1911;-51
2023/01/30 01:35:03;;;;;;;;;;;;;;;;;;5053554;28;2238;-46
2023/01/30 01:37:30;;;;;;;;;;;;;;;;;;5052041;28;2180;-51
2023/01/30 01:42:45;;;;;;;;;;;;;;;;;;5051699;28;1663;-47
2023/01/30 01:45:16;;;;;;;;;;;;;;;;;;5053502;28;1982;-49
2023/01/30 01:47:52;;;;;;;;;;;;;;;;;;5053524;28;2013;-48
2023/01/30 01:50:25;;;;;;;;;;;;;;;;;;5035600;28;1876;-52
2023/01/30 01:52:54;;;;;;;;;;;;;;;;;;5042733;28;1521;-49
2023/01/30 01:55:23;;;;;;;;;;;;;;;;;;5053303;28;1798;-51
2023/01/30 01:57:53;;;;;;;;;;;;;;;;;;5053074;28;1862;-52
2023/01/30 02:00:22;;;;;;;;;;;;;;;;;;5052013;28;1876;-43
2023/01/30 02:02:54;;;;;;;;;;;;;;;;;;5043347;28;2034;-49
2023/01/30 02:05:21;;;;;;;;;;;;;;;;;;5068571;28;2328;-48
2023/01/30 02:08:03;;;;;;;;;;;;;;;;;;5053340;28;2045;-50
2023/01/30 02:10:53;;;;;;;;;;;;;;;;;;5053242;28;1752;-48
2023/01/30 02:13:20;;;;;;;;;;;;;;;;;;5034892;28;1816;-50
2023/01/30 02:15:48;;;;;;;;;;;;;;;;;;5053087;28;1975;-48
2023/01/30 02:18:18;;;;;;;;;;;;;;;;;;5034880;28;2028;-52
2023/01/30 02:20:56;;;;;;;;;;;;;;;;;;5052789;28;1803;-50
2023/01/30 02:23:38;;;;;;;;;;;;;;;;;;5052790;28;1995;-47
2023/01/30 02:26:26;;;;;;;;;;;;;;;;;;5034675;28;1516;-50
2023/01/30 02:29:16;;;;;;;;;;;;;;;;;;5052787;28;2011;-44
2023/01/30 02:31:49;;;;;;;;;;;;;;;;;;5052791;28;1837;-48
2023/01/30 02:34:22;;;;;;;;;;;;;;;;;;5034692;28;1933;-49
2023/01/30 02:36:59;;;;;;;;;;;;;;;;;;5035104;28;2147;-49
2023/01/30 02:39:36;;;;;;;;;;;;;;;;;;5034717;28;1762;-47
2023/01/30 02:42:42;;;;;;;;;;;;;;;;;;5052414;28;1946;-51
2023/01/30 02:45:21;;;;;;;;;;;;;;;;;;4954954;28;1971;-44
2023/01/30 02:48:08;;;;;;;;;;;;;;;;;;4971624;28;2019;-49
2023/01/30 02:50:59;;;;;;;;;;;;;;;;;;5028844;28;1405;-50
2023/01/30 02:53:30;;;;;;;;;;;;;;;;;;5042443;28;1753;-52
2023/01/30 02:55:57;;;;;;;;;;;;;;;;;;5052126;28;1914;-52
2023/01/30 02:58:26;;;;;;;;;;;;;;;;;;5067536;28;2063;-45
2023/01/30 03:01:11;;;;;;;;;;;;;;;;;;5052380;28;1860;-53
2023/01/30 03:03:56;;;;;;;;;;;;;;;;;;5047333;28;2057;-46
2023/01/30 03:06:41;;;;;;;;;;;;;;;;;;5054434;28;1998;-57
2023/01/30 03:09:15;;;;;;;;;;;;;;;;;;5033886;28;1887;-50
2023/01/30 03:11:45;;;;;;;;;;;;;;;;;;5030623;28;2067;-53
2023/01/30 03:14:19;;;;;;;;;;;;;;;;;;5022798;28;1927;-51
2023/01/30 03:16:48;;;;;;;;;;;;;;;;;;5041643;28;1769;-47
2023/01/30 03:19:18;;;;;;;;;;;;;;;;;;5033796;28;2035;-51
2023/01/30 03:21:46;;;;;;;;;;;;;;;;;;5033078;28;1858;-50
2023/01/30 03:24:14;;;;;;;;;;;;;;;;;;5051583;28;2022;-49
2023/01/30 03:26:53;;;;;;;;;;;;;;;;;;5037719;28;1905;-53
2023/01/30 03:29:21;;;;;;;;;;;;;;;;;;5063686;28;2153;-49
2023/01/30 03:31:49;;;;;;;;;;;;;;;;;;5020661;28;2326;-51
2023/01/30 03:34:16;;;;;;;;;;;;;;;;;;5048002;28;1832;-49
2023/01/30 03:36:45;;;;;;;;;;;;;;;;;;5043540;28;2150;-49
2023/01/30 03:39:14;;;;;;;;;;;;;;;;;;5059691;28;1479;-51
2023/01/30 03:41:42;;;;;;;;;;;;;;;;;;5013929;28;2187;-48
2023/01/30 03:44:09;;;;;;;;;;;;;;;;;;5051223;28;1920;-49
2023/01/30 03:46:39;;;;;;;;;;;;;;;;;;5051299;28;2081;-47
2023/01/30 03:49:07;;;;;;;;;;;;;;;;;;5033504;28;1836;-55
2023/01/30 03:51:34;;;;;;;;;;;;;;;;;;5051394;28;2419;-48
2023/01/30 03:54:02;;;;;;;;;;;;;;;;;;5033261;28;1985;-49
2023/01/30 03:56:29;;;;;;;;;;;;;;;;;;5051198;28;1384;-43
2023/01/30 03:58:56;;;;;;;;;;;;;;;;;;5051291;28;2018;-48
2023/01/30 04:01:33;;;;;;;;;;;;;;;;;;5018214;28;1966;-49
2023/01/30 04:04:00;;;;;;;;;;;;;;;;;;5032994;28;2005;-52
2023/01/30 04:06:28;;;;;;;;;;;;;;;;;;5033090;28;1997;-54
2023/01/30 04:08:55;;;;;;;;;;;;;;;;;;5017066;28;1689;-47
2023/01/30 04:11:33;;;;;;;;;;;;;;;;;;5049876;28;1864;-54
2023/01/30 04:14:00;;;;;;;;;;;;;;;;;;5050670;28;1496;-47
2023/01/30 04:16:29;;;;;;;;;;;;;;;;;;5065470;28;2123;-48
2023/01/30 04:19:17;;;;;;;;;;;;;;;;;;4999915;28;1867;-50
2023/01/30 04:21:44;;;;;;;;;;;;;;;;;;5044695;28;2016;-51
2023/01/30 04:24:11;;;;;;;;;;;;;;;;;;5036958;28;1923;-51
2023/01/30 04:26:40;;;;;;;;;;;;;;;;;;5049314;28;2067;-48
2023/01/30 04:29:07;;;;;;;;;;;;;;;;;;5041189;28;1972;-55
2023/01/30 04:31:36;;;;;;;;;;;;;;;;;;5032296;28;2168;-53
2023/01/30 04:34:18;;;;;;;;;;;;;;;;;;5017777;28;1691;-49
2023/01/30 04:36:46;;;;;;;;;;;;;;;;;;5026193;28;2483;-50
2023/01/30 04:39:13;;;;;;;;;;;;;;;;;;5029530;28;1765;-51
2023/01/30 04:41:40;;;;;;;;;;;;;;;;;;5030703;28;1971;-48
2023/01/30 04:44:08;;;;;;;;;;;;;;;;;;5027950;28;2274;-55
2023/01/30 04:46:49;;;;;;;;;;;;;;;;;;5029885;28;1976;-51
2023/01/30 04:49:16;;;;;;;;;;;;;;;;;;5042717;28;1739;-50
2023/01/30 04:51:46;;;;;;;;;;;;;;;;;;5035583;28;1715;-53
2023/01/30 04:54:13;;;;;;;;;;;;;;;;;;5023242;28;2049;-51
2023/01/30 04:56:40;;;;;;;;;;;;;;;;;;5030744;28;1541;-47
2023/01/30 04:59:08;;;;;;;;;;;;;;;;;;5029077;28;1805;-49
2023/01/30 05:01:40;;;;;;;;;;;;;;;;;;5016707;28;2095;-46
2023/01/30 05:04:08;;;;;;;;;;;;;;;;;;5022628;28;1912;-50
2023/01/30 05:06:35;;;;;;;;;;;;;;;;;;5028047;28;1517;-55
2023/01/30 05:09:03;;;;;;;;;;;;;;;;;;5022080;28;1776;-50
2023/01/30 05:11:31;;;;;;;;;;;;;;;;;;5019489;28;2061;-47
2023/01/30 05:13:59;;;;;;;;;;;;;;;;;;5030918;28;1965;-51
2023/01/30 05:16:26;;;;;;;;;;;;;;;;;;5018353;28;1861;-46
2023/01/30 05:18:53;;;;;;;;;;;;;;;;;;5030536;28;1977;-46
2023/01/30 05:21:22;;;;;;;;;;;;;;;;;;5029801;28;1611;-50
2023/01/30 05:23:50;;;;;;;;;;;;;;;;;;5024156;28;1990;-46
2023/01/30 05:26:17;;;;;;;;;;;;;;;;;;5012797;28;1914;-52
2023/01/30 05:28:49;;;;;;;;;;;;;;;;;;5033492;28;1520;-51
2023/01/30 05:31:16;;;;;;;;;;;;;;;;;;5033816;28;1608;-51
2023/01/30 05:33:45;;;;;;;;;;;;;;;;;;5040369;28;1935;-50
2023/01/30 05:36:13;;;;;;;;;;;;;;;;;;5053574;28;1942;-45
2023/01/30 05:38:44;;;;;;;;;;;;;;;;;;5053137;28;1915;-44
2023/01/30 05:41:12;;;;;;;;;;;;;;;;;;5048670;28;1892;-47
2023/01/30 05:43:40;;;;;;;;;;;;;;;;;;5053444;28;1893;-51
2023/01/30 05:46:08;;;;;;;;;;;;;;;;;;5053469;28;1977;-47
2023/01/30 05:48:35;;;;;;;;;;;;;;;;;;5053906;28;1971;-48
2023/01/30 05:51:03;;;;;;;;;;;;;;;;;;5053414;28;1849;-50
2023/01/30 05:53:33;;;;;;;;;;;;;;;;;;5053380;28;2175;-51
2023/01/30 05:56:02;;;;;;;;;;;;;;;;;;5048905;28;1968;-50
2023/01/30 05:58:30;;;;;;;;;;;;;;;;;;5053549;28;2046;-50
2023/01/30 06:01:01;;;;;;;;;;;;;;;;;;5053120;28;1932;-52
2023/01/30 06:03:28;;;;;;;;;;;;;;;;;;5046040;28;2154;-53
2023/01/30 06:05:55;;;;;;;;;;;;;;;;;;5053056;28;1997;-49
2023/01/30 06:08:22;;;;;;;;;;;;;;;;;;5052939;28;2166;-51
2023/01/30 06:10:50;;;;;;;;;;;;;;;;;;5052655;28;1981;-53
2023/01/30 06:13:17;;;;;;;;;;;;;;;;;;5053096;28;1710;-51
2023/01/30 06:15:44;;;;;;;;;;;;;;;;;;5053067;28;1747;-50
2023/01/30 06:18:12;;;;;;;;;;;;;;;;;;5053073;28;1677;-54
2023/01/30 06:20:39;;;;;;;;;;;;;;;;;;5052983;28;1596;-48
2023/01/30 06:23:06;;;;;;;;;;;;;;;;;;5052925;28;1568;-51
2023/01/30 06:25:33;;;;;;;;;;;;;;;;;;5052727;28;2176;-50
2023/01/30 06:28:00;;;;;;;;;;;;;;;;;;5052453;28;1967;-48
2023/01/30 06:30:27;;;;;;;;;;;;;;;;;;5052699;28;2297;-52
2023/01/30 06:32:55;;;;;;;;;;;;;;;;;;5052554;28;1915;-45
2023/01/30 06:35:22;;;;;;;;;;;;;;;;;;5052778;28;1550;-48
2023/01/30 06:37:49;;;;;;;;;;;;;;;;;;5052232;28;1563;-52
2023/01/30 06:40:16;;;;;;;;;;;;;;;;;;5051643;28;1872;-51
2023/01/30 06:42:47;;;;;;;;;;;;;;;;;;5052385;28;1534;-50
2023/01/30 06:45:16;;;;;;;;;;;;;;;;;;5052093;28;1946;-48
2023/01/30 06:47:44;;;;;;;;;;;;;;;;;;5051783;28;1629;-43
2023/01/30 06:50:13;;;;;;;;;;;;;;;;;;5051775;28;2121;-44
2023/01/30 06:52:45;;;;;;;;;;;;;;;;;;5052379;28;1862;-52
2023/01/30 06:55:17;;;;;;;;;;;;;;;;;;5034149;28;1738;-49
2023/01/30 06:57:46;;;;;;;;;;;;;;;;;;5052167;28;1561;-47
2023/01/30 07:00:16;;;;;;;;;;;;;;;;;;5052072;28;2099;-48
2023/01/30 07:02:43;;;;;;;;;;;;;;;;;;5052062;28;1652;-50
2023/01/30 07:05:11;;;;;;;;;;;;;;;;;;5052252;28;1910;-53
2023/01/30 07:07:38;;;;;;;;;;;;;;;;;;5052034;28;2274;-51
2023/01/30 07:10:06;;;;;;;;;;;;;;;;;;5052083;28;1648;-51
2023/01/30 07:12:35;;;;;;;;;;;;;;;;;;5051596;28;1857;-42
2023/01/30 07:15:03;;;;;;;;;;;;;;;;;;5051922;28;1733;-55
2023/01/30 07:17:31;;;;;;;;;;;;;;;;;;5051646;28;1558;-49
2023/01/30 07:19:58;;;;;;;;;;;;;;;;;;5051695;28;2368;-53
2023/01/30 07:22:26;;;;;;;;;;;;;;;;;;5051820;28;1971;-47
2023/01/30 07:24:53;;;;;;;;;;;;;;;;;;5051928;28;1936;-48
2023/01/30 07:27:20;;;;;;;;;;;;;;;;;;5051510;28;2106;-53
2023/01/30 07:29:47;;;;;;;;;;;;;;;;;;5051746;28;1854;-46
2023/01/30 07:32:17;;;;;;;;;;;;;;;;;;5051489;28;1866;-51
2023/01/30 07:34:44;;;;;;;;;;;;;;;;;;5051387;28;1951;-50
2023/01/30 07:37:12;;;;;;;;;;;;;;;;;;5051483;28;2151;-50
2023/01/30 07:39:39;;;;;;;;;;;;;;;;;;5051732;28;1996;-51
2023/01/30 07:42:06;;;;;;;;;;;;;;;;;;5051404;28;1616;-48
2023/01/30 07:44:34;;;;;;;;;;;;;;;;;;5051023;28;2123;-51
2023/01/30 07:47:01;;;;;;;;;;;;;;;;;;5051185;28;1715;-47
2023/01/30 07:49:28;;;;;;;;;;;;;;;;;;5051129;28;1664;-52
2023/01/30 07:51:55;;;;;;;;;;;;;;;;;;5050890;28;1615;-48
2023/01/30 07:54:22;;;;;;;;;;;;;;;;;;5051223;28;1603;-50
2023/01/30 07:56:50;;;;;;;;;;;;;;;;;;5050988;28;1903;-53
2023/01/30 07:59:17;;;;;;;;;;;;;;;;;;5050959;28;1871;-53
2023/01/30 08:01:44;;;;;;;;;;;;;;;;;;5051115;28;2295;-49
2023/01/30 08:04:11;;;;;;;;;;;;;;;;;;5051132;28;2060;-39
2023/01/30 08:06:39;;;;;;;;;;;;;;;;;;5051196;28;1911;-50
2023/01/30 08:09:06;;;;;;;;;;;;;;;;;;5050917;28;2053;-48
2023/01/30 08:11:34;;;;;;;;;;;;;;;;;;5050993;28;2040;-47
2023/01/30 08:14:02;;;;;;;;;;;;;;;;;;5050893;28;1552;-53
2023/01/30 08:16:31;;;;;;;;;;;;;;;;;;5050852;28;2126;-52
2023/01/30 08:18:58;;;;;;;;;;;;;;;;;;5050921;28;1976;-45
2023/01/30 08:21:27;;;;;;;;;;;;;;;;;;5051071;28;2040;-49
2023/01/30 08:23:54;;;;;;;;;;;;;;;;;;5050873;28;1823;-49
2023/01/30 08:26:21;;;;;;;;;;;;;;;;;;5050593;28;1931;-50
2023/01/30 08:28:48;;;;;;;;;;;;;;;;;;5050871;28;2205;-48
2023/01/30 08:31:16;;;;;;;;;;;;;;;;;;5033073;28;2252;-46
2023/01/30 08:33:43;;;;;;;;;;;;;;;;;;5050710;28;1857;-52
2023/01/30 08:36:11;;;;;;;;;;;;;;;;;;5050671;28;2206;-51
2023/01/30 08:38:38;;;;;;;;;;;;;;;;;;5050727;28;1999;-51
2023/01/30 08:41:07;;;;;;;;;;;;;;;;;;5050434;28;1836;-52
2023/01/30 08:43:34;;;;;;;;;;;;;;;;;;5050874;28;2059;-52
2023/01/30 08:46:01;;;;;;;;;;;;;;;;;;5050579;28;2026;-47
2023/01/30 08:48:28;;;;;;;;;;;;;;;;;;5050644;28;2277;-49
2023/01/30 08:51:13;;;;;;;;;;;;;;;;;;5050660;28;2036;-48
2023/01/30 08:53:40;;;;;;;;;;;;;;;;;;5050734;28;2362;-51
2023/01/30 08:56:08;;;;;;;;;;;;;;;;;;5050688;28;1473;-54
2023/01/30 08:58:35;;;;;;;;;;;;;;;;;;5050650;28;1771;-45
2023/01/30 09:01:06;;;;;;;;;;;;;;;;;;5050670;28;2151;-50
2023/01/30 09:03:33;;;;;;;;;;;;;;;;;;5053338;28;2079;-47
2023/01/30 09:06:00;;;;;;;;;;;;;;;;;;5054298;28;2041;-51
2023/01/30 09:08:28;;;;;;;;;;;;;;;;;;5054336;28;2204;-47
2023/01/30 09:10:58;;;;;;;;;;;;;;;;;;5054268;28;1906;-54
2023/01/30 09:13:26;;;;;;;;;;;;;;;;;;5054706;28;2014;-53
2023/01/30 09:15:53;;;;;;;;;;;;;;;;;;5054083;28;1819;-52
2023/01/30 09:18:20;;;;;;;;;;;;;;;;;;5053962;28;1711;-48
2023/01/30 09:20:47;;;;;;;;;;;;;;;;;;5054574;28;2193;-53
2023/01/30 09:23:15;;;;;;;;;;;;;;;;;;5053996;28;1794;-51
2023/01/30 09:25:45;;;;;;;;;;;;;;;;;;5054000;28;1910;-51
2023/01/30 09:28:12;;;;;;;;;;;;;;;;;;5053760;28;2078;-53
2023/01/30 09:30:39;;;;;;;;;;;;;;;;;;5053963;28;1635;-48
2023/01/30 09:33:06;;;;;;;;;;;;;;;;;;5053828;28;2187;-51
2023/01/30 09:35:34;;;;;;;;;;;;;;;;;;5053908;28;2028;-48
2023/01/30 09:38:03;;;;;;;;;;;;;;;;;;5053870;28;2335;-51
2023/01/30 09:40:31;;;;;;;;;;;;;;;;;;5053683;28;2121;-47
2023/01/30 09:43:01;;;;;;;;;;;;;;;;;;5053708;28;2075;-51
2023/01/30 09:45:34;;;;;;;;;;;;;;;;;;5053579;28;1914;-49
2023/01/30 09:48:04;;;;;;;;;;;;;;;;;;5053457;28;1970;-51
2023/01/30 09:50:45;;;;;;;;;;;;;;;;;;5053401;28;2019;-53
2023/01/30 09:53:29;;;;;;;;;;;;;;;;;;5053475;28;1606;-55
2023/01/30 09:56:00;;;;;;;;;;;;;;;;;;5053139;28;2098;-48
2023/01/30 09:58:41;;;;;;;;;;;;;;;;;;5053295;28;1770;-52
2023/01/30 10:01:14;;;;;;;;;;;;;;;;;;5053149;28;1962;-52
2023/01/30 10:03:49;;;;;;;;;;;;;;;;;;5053050;28;1667;-52
2023/01/30 10:06:16;;;;;;;;;;;;;;;;;;5052981;28;1973;-55
2023/01/30 10:08:55;;;;;;;;;;;;;;;;;;5052935;28;1674;-49
2023/01/30 10:11:32;;;;;;;;;;;;;;;;;;5052989;28;1857;-51
2023/01/30 10:14:19;;;;;;;;;;;;;;;;;;5052473;28;1690;-52
2023/01/30 10:17:06;;;;;;;;;;;;;;;;;;5053009;28;1863;-49
2023/01/30 10:19:39;;;;;;;;;;;;;;;;;;5052703;28;1783;-52
2023/01/30 10:22:21;;;;;;;;;;;;;;;;;;5052948;28;1879;-44
2023/01/30 10:25:05;;;;;;;;;;;;;;;;;;5052975;28;2160;-52
2023/01/30 10:27:33;;;;;;;;;;;;;;;;;;5052605;28;2702;-48
2023/01/30 10:30:03;;;;;;;;;;;;;;;;;;5052525;28;2017;-50
2023/01/30 10:32:34;;;;;;;;;;;;;;;;;;5052961;28;1412;-46
2023/01/30 10:35:06;;;;;;;;;;;;;;;;;;5052376;28;2162;-47
2023/01/30 10:37:52;;;;;;;;;;;;;;;;;;5052529;28;1925;-53
2023/01/30 10:40:19;;;;;;;;;;;;;;;;;;5052946;28;2137;-48
2023/01/30 10:43:02;;;;;;;;;;;;;;;;;;5052787;28;1795;-51
2023/01/30 10:45:55;;;;;;;;;;;;;;;;;;5052528;28;1924;-51
2023/01/30 10:48:28;;;;;;;;;;;;;;;;;;5021635;28;1777;-51
2023/01/30 10:51:21;;;;;;;;;;;;;;;;;;5052373;28;1912;-48
2023/01/30 10:54:01;;;;;;;;;;;;;;;;;;5052122;28;1594;-50
2023/01/30 10:56:28;;;;;;;;;;;;;;;;;;5052114;28;1864;-50
2023/01/30 10:59:14;;;;;;;;;;;;;;;;;;5052041;28;1850;-43
2023/01/30 11:02:09;;;;;;;;;;;;;;;;;;5051862;28;2217;-51
2023/01/30 11:04:45;;;;;;;;;;;;;;;;;;5031275;28;1941;-46
2023/01/30 11:07:12;;;;;;;;;;;;;;;;;;5032122;28;1912;-48
2023/01/30 11:09:41;;;;;;;;;;;;;;;;;;5032177;28;1941;-51
2023/01/30 11:12:08;;;;;;;;;;;;;;;;;;5032149;28;1869;-48
2023/01/30 11:14:55;;;;;;;;;;;;;;;;;;5031949;28;2058;-47
2023/01/30 11:17:28;;;;;;;;;;;;;;;;;;5032250;28;1815;-47
2023/01/30 11:19:56;;;;;;;;;;;;;;;;;;5032094;28;1980;-49
2023/01/30 11:22:25;;;;;;;;;;;;;;;;;;5032214;28;1511;-49
2023/01/30 11:25:05;;;;;;;;;;;;;;;;;;5031486;28;2044;-52
2023/01/30 11:27:33;;;;;;;;;;;;;;;;;;5031432;28;1948;-52
2023/01/30 11:30:17;;;;;;;;;;;;;;;;;;5031643;28;1992;-47
2023/01/30 11:32:46;;;;;;;;;;;;;;;;;;5031584;28;2123;-46
2023/01/30 11:35:13;;;;;;;;;;;;;;;;;;5031541;28;1838;-47
2023/01/30 11:37:42;;;;;;;;;;;;;;;;;;5031467;28;2135;-47
2023/01/30 11:40:24;;;;;;;;;;;;;;;;;;5031648;28;1866;-47
2023/01/30 11:42:57;;;;;;;;;;;;;;;;;;5031474;28;2155;-48
2023/01/30 11:45:29;;;;;;;;;;;;;;;;;;5031684;28;1631;-52
2023/01/30 11:47:58;;;;;;;;;;;;;;;;;;5031474;28;2029;-47
2023/01/30 11:50:31;;;;;;;;;;;;;;;;;;5031025;28;1720;-51
2023/01/30 11:53:31;;;;;;;;;;;;;;;;;;5031395;28;2116;-48
2023/01/30 11:56:00;;;;;;;;;;;;;;;;;;5029557;28;1647;-49
2023/01/30 11:58:34;;;;;;;;;;;;;;;;;;5030985;28;1873;-48
2023/01/30 12:01:02;;;;;;;;;;;;;;;;;;5031201;28;1833;-49
2023/01/30 12:03:30;;;;;;;;;;;;;;;;;;5044256;28;1756;-45
2023/01/30 12:05:57;;;;;;;;;;;;;;;;;;5050965;28;1910;-48
2023/01/30 12:08:27;;;;;;;;;;;;;;;;;;5051360;28;1964;-49
2023/01/30 12:11:22;;;;;;;;;;;;;;;;;;5050606;28;1661;-45
2023/01/30 12:13:50;;;;;;;;;;;;;;;;;;5050768;28;1887;-49
2023/01/30 12:16:22;;;;;;;;;;;;;;;;;;5051091;28;1939;-49
2023/01/30 12:19:02;;;;;;;;;;;;;;;;;;5050806;28;1668;-48
2023/01/30 12:21:43;;;;;;;;;;;;;;;;;;5033314;28;1655;-48
2023/01/30 12:24:29;;;;;;;;;;;;;;;;;;5050814;28;2026;-43
2023/01/30 12:27:03;;;;;;;;;;;;;;;;;;5051035;28;2026;-40
2023/01/30 12:29:33;;;;;;;;;;;;;;;;;;5050912;28;1822;-46
2023/01/30 12:32:03;;;;;;;;;;;;;;;;;;5050899;28;1956;-48
2023/01/30 12:34:30;;;;;;;;;;;;;;;;;;5050860;28;1947;-46
2023/01/30 12:37:07;;;;;;;;;;;;;;;;;;5053220;28;2202;-45
2023/01/30 13:43:38;;;;;;;;;;;;;;;;;;4821166;29;2117;-45
2023/01/30 13:46:24;;;;;;;;;;;;;;;;;;4820475;29;1911;-46
2023/01/30 13:49:20;;;;;;;;;;;;;;;;;;4821691;29;2095;-45
2023/01/30 13:52:07;;;;;;;;;;;;;;;;;;4822402;29;1982;-47
2023/01/30 13:54:48;;;;;;;;;;;;;;;;;;4822361;29;2107;-46
2023/01/30 13:57:49;;;;;;;;;;;;;;;;;;4822056;29;1395;-50
2023/01/30 14:00:21;;;;;;;;;;;;;;;;;;4807131;29;1889;-43
2023/01/30 14:03:02;;;;;;;;;;;;;;;;;;4823486;29;2051;-48
2023/01/30 14:06:01;;;;;;;;;;;;;;;;;;4840882;29;1848;-48
2023/01/30 14:08:44;;;;;;;;;;;;;;;;;;4840979;29;2004;-48
2023/01/30 14:11:33;;;;;;;;;;;;;;;;;;4822978;29;1962;-49
2023/01/30 14:14:03;;;;;;;;;;;;;;;;;;4821889;29;2123;-49
2023/01/30 14:16:47;;;;;;;;;;;;;;;;;;4843221;29;2347;-46
2023/01/30 14:19:34;;;;;;;;;;;;;;;;;;4858675;29;1619;-48
2023/01/30 14:22:04;;;;;;;;;;;;;;;;;;4934015;29;2035;-50
2023/01/30 14:24:31;;;;;;;;;;;;;;;;;;4933588;29;1518;-49
2023/01/30 14:27:01;;;;;;;;;;;;;;;;;;4933642;29;2330;-46
2023/01/30 14:29:38;;;;;;;;;;;;;;;;;;4933779;29;1858;-45
2023/01/30 14:32:11;;;;;;;;;;;;;;;;;;4933795;29;1788;-48
2023/01/30 14:34:40;;;;;;;;;;;;;;;;;;4933428;29;1743;-49
2023/01/30 14:37:26;;;;;;;;;;;;;;;;;;4933287;29;1905;-44
2023/01/30 14:39:54;;;;;;;;;;;;;;;;;;4933631;29;2038;-46
2023/01/30 14:42:26;;;;;;;;;;;;;;;;;;4933314;29;2165;-47
2023/01/30 14:44:57;;;;;;;;;;;;;;;;;;4933234;29;1908;-48
2023/01/30 14:47:25;;;;;;;;;;;;;;;;;;4933296;29;2162;-46
2023/01/30 14:50:01;;;;;;;;;;;;;;;;;;4933273;29;1336;-48
2023/01/30 14:52:41;;;;;;;;;;;;;;;;;;4933322;29;2215;-48
2023/01/30 14:55:23;;;;;;;;;;;;;;;;;;4933219;29;2170;-48
2023/01/30 14:58:13;;;;;;;;;;;;;;;;;;4932962;29;1938;-47
2023/01/30 15:00:40;;;;;;;;;;;;;;;;;;4932049;29;1827;-47
2023/01/30 15:03:15;;;;;;;;;;;;;;;;;;4942252;29;1574;-47
2023/01/30 15:05:44;;;;;;;;;;;;;;;;;;4952128;29;2058;-45
2023/01/30 15:08:22;;;;;;;;;;;;;;;;;;4951808;29;2046;-48
2023/01/30 15:10:52;;;;;;;;;;;;;;;;;;4952071;29;1498;-46
2023/01/30 15:13:35;;;;;;;;;;;;;;;;;;4951868;29;1974;-46
2023/01/30 15:16:21;;;;;;;;;;;;;;;;;;4951586;29;2026;-47
2023/01/30 15:19:02;;;;;;;;;;;;;;;;;;4951709;29;2278;-47
2023/01/30 15:21:48;;;;;;;;;;;;;;;;;;4951754;29;1887;-49
2023/01/30 15:24:27;;;;;;;;;;;;;;;;;;4951519;29;1613;-49
2023/01/30 15:27:00;;;;;;;;;;;;;;;;;;4951441;29;2152;-49
2023/01/30 15:29:33;;;;;;;;;;;;;;;;;;4951567;29;2037;-46
2023/01/30 15:32:13;;;;;;;;;;;;;;;;;;4951601;29;2108;-43
2023/01/30 15:34:48;;;;;;;;;;;;;;;;;;4935844;29;1946;-45
2023/01/30 15:37:33;;;;;;;;;;;;;;;;;;4951147;29;2052;-45
2023/01/30 15:40:16;;;;;;;;;;;;;;;;;;4951489;29;2053;-44
2023/01/30 15:42:44;;;;;;;;;;;;;;;;;;4951307;29;2405;-44
2023/01/30 15:45:19;;;;;;;;;;;;;;;;;;4951381;29;2043;-48
2023/01/30 15:47:47;;;;;;;;;;;;;;;;;;4951162;29;1950;-49
2023/01/30 15:50:15;;;;;;;;;;;;;;;;;;4951215;29;1926;-44
2023/01/30 15:52:48;;;;;;;;;;;;;;;;;;4951276;29;1602;-43
2023/01/30 15:55:30;;;;;;;;;;;;;;;;;;4950969;29;1827;-44
2023/01/30 15:58:00;;;;;;;;;;;;;;;;;;4951203;29;2238;-45
2023/01/30 16:00:35;;;;;;;;;;;;;;;;;;4950907;29;1903;-46
2023/01/30 16:03:03;;;;;;;;;;;;;;;;;;4950796;28;2197;-48
2023/01/30 16:05:30;;;;;;;;;;;;;;;;;;4950792;28;2115;-46
2023/01/30 16:08:08;;;;;;;;;;;;;;;;;;4950851;29;2281;-47
2023/01/30 16:10:42;;;;;;;;;;;;;;;;;;4950644;28;2123;-47
2023/01/30 16:13:09;;;;;;;;;;;;;;;;;;4951172;29;1394;-47
2023/01/30 16:15:43;;;;;;;;;;;;;;;;;;4950748;29;2249;-48
2023/01/30 16:18:25;;;;;;;;;;;;;;;;;;4951056;29;2265;-43
2023/01/30 16:20:57;;;;;;;;;;;;;;;;;;4951011;29;2202;-44
2023/01/30 16:23:40;;;;;;;;;;;;;;;;;;4950739;29;2103;-47
2023/01/30 16:26:12;;;;;;;;;;;;;;;;;;4950870;29;2127;-46
2023/01/30 16:28:39;;;;;;;;;;;;;;;;;;4950832;29;1939;-44
2023/01/30 16:31:08;;;;;;;;;;;;;;;;;;4950907;29;1990;-47
2023/01/30 16:33:36;;;;;;;;;;;;;;;;;;4950766;29;1941;-47
2023/01/30 16:36:19;;;;;;;;;;;;;;;;;;4950207;29;2108;-44
2023/01/30 16:38:48;;;;;;;;;;;;;;;;;;4950870;28;1591;-47
2023/01/30 16:41:32;;;;;;;;;;;;;;;;;;4950877;28;2233;-46
2023/01/30 16:44:09;;;;;;;;;;;;;;;;;;4950399;29;1626;-48
2023/01/30 16:46:45;;;;;;;;;;;;;;;;;;4950633;29;2117;-48
2023/01/30 16:49:18;;;;;;;;;;;;;;;;;;4950589;29;2334;-46
2023/01/30 16:51:45;;;;;;;;;;;;;;;;;;4950880;29;2067;-47
2023/01/30 16:54:18;;;;;;;;;;;;;;;;;;4950866;29;1759;-45
2023/01/30 16:56:47;;;;;;;;;;;;;;;;;;4950311;29;1851;-44
2023/01/30 16:59:18;;;;;;;;;;;;;;;;;;4934812;29;1913;-49
2023/01/30 17:01:46;;;;;;;;;;;;;;;;;;4950862;29;2374;-45
2023/01/30 17:04:17;;;;;;;;;;;;;;;;;;4932442;29;1753;-47
2023/01/30 17:06:51;;;;;;;;;;;;;;;;;;4931602;29;1966;-47
2023/01/30 17:09:37;;;;;;;;;;;;;;;;;;4940762;28;1873;-50
2023/01/30 17:12:33;;;;;;;;;;;;;;;;;;4950368;29;1839;-47
2023/01/30 17:15:13;;;;;;;;;;;;;;;;;;4950354;29;2019;-45
2023/01/30 17:17:40;;;;;;;;;;;;;;;;;;4950239;29;1541;-48
2023/01/30 17:20:08;;;;;;;;;;;;;;;;;;4950344;29;2160;-47
2023/01/30 17:22:37;;;;;;;;;;;;;;;;;;4950372;28;2058;-45
2023/01/30 17:25:06;;;;;;;;;;;;;;;;;;4953859;29;2196;-47
2023/01/30 17:27:33;;;;;;;;;;;;;;;;;;4953986;29;2008;-47
2023/01/30 17:30:00;;;;;;;;;;;;;;;;;;4953874;29;2205;-45
2023/01/30 17:32:27;;;;;;;;;;;;;;;;;;4953836;29;2192;-47
2023/01/30 17:34:55;;;;;;;;;;;;;;;;;;4953863;29;1892;-48
2023/01/30 17:37:22;;;;;;;;;;;;;;;;;;4953170;29;1945;-45
2023/01/30 17:39:49;;;;;;;;;;;;;;;;;;4975103;28;1967;-45
2023/01/30 17:42:19;;;;;;;;;;;;;;;;;;5034143;28;2636;-46
2023/01/30 17:44:47;;;;;;;;;;;;;;;;;;5033768;28;2037;-45
2023/01/30 17:47:14;;;;;;;;;;;;;;;;;;5034054;28;1902;-46
2023/01/30 17:49:42;;;;;;;;;;;;;;;;;;5033896;28;2006;-47
2023/01/30 17:52:11;;;;;;;;;;;;;;;;;;5033809;28;1557;-46
2023/01/30 17:54:38;;;;;;;;;;;;;;;;;;5033733;28;1759;-48
2023/01/30 17:57:08;;;;;;;;;;;;;;;;;;5033875;28;2160;-46
2023/01/30 17:59:35;;;;;;;;;;;;;;;;;;5033580;28;2299;-46
2023/01/30 18:02:02;;;;;;;;;;;;;;;;;;5034236;28;1792;-46
2023/01/30 18:04:29;;;;;;;;;;;;;;;;;;5053453;28;1705;-44
2023/01/30 18:07:03;;;;;;;;;;;;;;;;;;5053421;28;2005;-46
2023/01/30 18:09:30;;;;;;;;;;;;;;;;;;5053092;28;1896;-47
2023/01/30 18:11:58;;;;;;;;;;;;;;;;;;5053567;28;2203;-46
2023/01/30 18:14:25;;;;;;;;;;;;;;;;;;5053014;28;2296;-48
2023/01/30 18:16:58;;;;;;;;;;;;;;;;;;5053301;28;1952;-44
2023/01/30 18:19:27;;;;;;;;;;;;;;;;;;5053048;28;1829;-44
2023/01/30 18:21:54;;;;;;;;;;;;;;;;;;5053010;28;1855;-45
2023/01/30 18:24:21;;;;;;;;;;;;;;;;;;5035221;28;1515;-46
2023/01/30 18:26:48;;;;;;;;;;;;;;;;;;5053116;28;2005;-45
2023/01/30 18:29:15;;;;;;;;;;;;;;;;;;5052837;28;1981;-47
2023/01/30 18:31:42;;;;;;;;;;;;;;;;;;5052706;28;1678;-47
2023/01/30 18:34:10;;;;;;;;;;;;;;;;;;5052844;28;1813;-45
2023/01/30 18:36:37;;;;;;;;;;;;;;;;;;5052615;28;2143;-43
2023/01/30 18:39:06;;;;;;;;;;;;;;;;;;5052678;28;1864;-45
2023/01/30 18:41:34;;;;;;;;;;;;;;;;;;5052902;28;2102;-48
2023/01/30 18:44:03;;;;;;;;;;;;;;;;;;5052284;28;1790;-47
2023/01/30 18:46:30;;;;;;;;;;;;;;;;;;5052742;28;1884;-46